createdAt,value
2019-03-16T00:01:56.632Z,9.01
2019-03-16T00:04:15.104Z,8.99
2019-03-16T00:06:43.496Z,9.01
2019-03-16T00:09:11.877Z,9.01
2019-03-16T00:11:40.267Z,9.08
2019-03-16T00:14:08.646Z,9.05
2019-03-16T00:16:37.071Z,9.04
2019-03-16T00:19:05.522Z,9.02
2019-03-16T00:21:33.897Z,9.01
2019-03-16T00:24:02.278Z,9.02
2019-03-16T00:26:31.134Z,9.03
2019-03-16T00:28:59.510Z,9.05
2019-03-16T00:31:27.890Z,9.07
2019-03-16T00:33:56.269Z,9.10
2019-03-16T00:36:24.668Z,9.12
2019-03-16T00:38:53.067Z,9.08
2019-03-16T00:41:21.455Z,9.10
2019-03-16T00:43:49.837Z,9.07
2019-03-16T00:46:18.224Z,9.05
2019-03-16T00:48:46.603Z,9.05
2019-03-16T00:51:15.025Z,9.05
2019-03-16T00:53:43.404Z,9.05
2019-03-16T00:56:11.787Z,9.05
2019-03-16T00:58:40.161Z,9.08
2019-03-16T01:01:08.541Z,9.13
2019-03-16T01:03:36.920Z,9.15
2019-03-16T01:06:05.307Z,9.12
2019-03-16T01:08:33.687Z,9.08
2019-03-16T01:11:02.066Z,9.06
2019-03-16T01:13:30.449Z,9.07
2019-03-16T01:15:58.831Z,9.07
2019-03-16T01:18:27.269Z,9.08
2019-03-16T01:20:55.654Z,9.07
2019-03-16T01:23:24.030Z,9.07
2019-03-16T01:25:52.487Z,9.05
2019-03-16T01:28:20.859Z,9.08
2019-03-16T01:30:49.250Z,9.08
2019-03-16T01:33:18.061Z,9.11
2019-03-16T01:35:46.446Z,9.09
2019-03-16T01:38:14.845Z,9.11
2019-03-16T01:40:43.237Z,9.11
2019-03-16T01:43:11.683Z,9.13
2019-03-16T01:45:40.056Z,9.10
2019-03-16T01:48:08.445Z,9.07
2019-03-16T01:50:36.825Z,9.08
2019-03-16T01:53:05.205Z,9.10
2019-03-16T01:55:33.587Z,9.08
2019-03-16T01:58:01.962Z,9.07
2019-03-16T02:00:30.353Z,9.03
2019-03-16T02:02:58.726Z,9.03
2019-03-16T02:05:27.111Z,9.02
2019-03-16T02:07:55.517Z,9.01
2019-03-16T02:10:23.905Z,9.03
2019-03-16T02:12:52.294Z,8.99
2019-03-16T02:15:20.658Z,8.97
2019-03-16T02:17:49.052Z,9.01
2019-03-16T02:20:17.525Z,9.02
2019-03-16T02:22:45.882Z,9.01
2019-03-16T02:25:14.381Z,9.04
2019-03-16T02:27:42.720Z,9.01
2019-03-16T02:30:12.353Z,9.03
2019-03-16T02:32:40.726Z,9.01
2019-03-16T02:35:09.182Z,9.03
2019-03-16T02:37:37.629Z,9.06
2019-03-16T02:40:08.792Z,9.08
2019-03-16T02:42:37.136Z,9.07
2019-03-16T02:45:07.976Z,9.05
2019-03-16T02:47:36.442Z,9.05
2019-03-16T02:50:06.867Z,9.06
2019-03-16T02:52:35.246Z,9.08
2019-03-16T02:55:04.198Z,9.07
2019-03-16T02:57:32.594Z,9.06
2019-03-16T03:00:00.969Z,9.08
2019-03-16T03:02:29.358Z,9.03
2019-03-16T03:04:57.809Z,9.04
2019-03-16T03:07:26.183Z,9.01
2019-03-16T03:09:54.618Z,8.99
2019-03-16T03:12:22.993Z,9.00
2019-03-16T03:14:51.373Z,9.01
2019-03-16T03:17:19.763Z,8.99
2019-03-16T03:19:48.143Z,9.00
2019-03-16T03:22:16.533Z,8.98
2019-03-16T03:24:44.983Z,8.98
2019-03-16T03:27:13.374Z,8.97
2019-03-16T03:29:41.776Z,9.00
2019-03-16T03:32:10.174Z,9.01
2019-03-16T03:34:38.569Z,9.00
2019-03-16T03:37:06.958Z,9.04
2019-03-16T03:39:35.344Z,9.03
2019-03-16T03:42:03.864Z,9.02
2019-03-16T03:44:32.309Z,9.01
2019-03-16T03:47:00.728Z,8.98
2019-03-16T03:49:29.114Z,8.94
2019-03-16T03:51:57.499Z,8.97
2019-03-16T03:54:25.987Z,8.98
2019-03-16T03:56:54.428Z,8.97
2019-03-16T03:59:22.806Z,8.96
2019-03-16T04:01:51.191Z,8.95
2019-03-16T04:04:19.568Z,8.92
2019-03-16T04:06:47.948Z,8.89
2019-03-16T04:09:16.391Z,8.86
2019-03-16T04:11:44.752Z,8.85
2019-03-16T04:14:13.136Z,8.84
2019-03-16T04:16:41.515Z,8.83
2019-03-16T04:19:09.895Z,8.81
2019-03-16T04:21:38.275Z,8.81
2019-03-16T04:24:06.724Z,8.80
2019-03-16T04:26:35.107Z,8.78
2019-03-16T04:29:03.640Z,8.77
2019-03-16T04:31:32.003Z,8.79
2019-03-16T04:34:00.376Z,8.80
2019-03-16T04:36:28.763Z,8.79
2019-03-16T04:38:57.151Z,8.79
2019-03-16T04:41:25.533Z,8.70
2019-03-16T04:43:53.912Z,8.79
2019-03-16T04:46:22.312Z,8.78
2019-03-16T04:48:50.708Z,8.79
2019-03-16T04:51:19.088Z,8.76
2019-03-16T04:53:47.461Z,8.74
2019-03-16T04:56:15.845Z,8.74
2019-03-16T04:58:44.224Z,8.73
2019-03-16T05:01:12.612Z,8.71
2019-03-16T05:03:40.989Z,8.70
2019-03-16T05:06:09.379Z,8.73
2019-03-16T05:08:38.103Z,8.71
2019-03-16T05:11:06.487Z,8.71
2019-03-16T05:13:34.863Z,8.71
2019-03-16T05:16:03.242Z,8.72
2019-03-16T05:18:31.629Z,8.72
2019-03-16T05:21:00.021Z,8.72
2019-03-16T05:23:28.402Z,8.71
2019-03-16T05:25:56.792Z,8.71
2019-03-16T05:28:25.251Z,8.70
2019-03-16T05:30:53.637Z,8.71
2019-03-16T05:33:22.019Z,8.70
2019-03-16T05:35:50.410Z,8.72
2019-03-16T05:38:18.785Z,8.73
2019-03-16T05:40:47.173Z,8.72
2019-03-16T05:43:15.551Z,8.70
2019-03-16T05:45:43.969Z,8.69
2019-03-16T05:48:12.348Z,8.69
2019-03-16T05:50:40.735Z,8.68
2019-03-16T05:53:09.105Z,8.68
2019-03-16T05:55:37.479Z,8.69
2019-03-16T05:58:05.939Z,8.67
2019-03-16T06:00:34.319Z,8.68
2019-03-16T06:03:02.703Z,8.69
2019-03-16T06:05:31.089Z,8.68
2019-03-16T06:07:59.509Z,8.67
2019-03-16T06:10:27.926Z,8.67
2019-03-16T06:12:56.400Z,8.68
2019-03-16T06:15:24.778Z,8.68
2019-03-16T06:17:53.234Z,8.67
2019-03-16T06:20:21.618Z,8.68
2019-03-16T06:22:49.991Z,8.69
2019-03-16T06:25:18.372Z,8.70
2019-03-16T06:27:46.796Z,8.70
2019-03-16T06:30:16.022Z,8.69
2019-03-16T06:32:44.394Z,8.69
2019-03-16T06:35:23.928Z,8.67
2019-03-16T06:37:42.990Z,8.67
2019-03-16T06:40:12.123Z,8.67
2019-03-16T06:42:40.516Z,8.68
2019-03-16T06:45:10.547Z,8.67
2019-03-16T06:47:38.926Z,8.69
2019-03-16T06:50:12.761Z,8.68
2019-03-16T06:52:41.191Z,8.69
2019-03-16T06:55:09.706Z,8.70
2019-03-16T06:57:38.085Z,8.72
2019-03-16T07:00:09.511Z,8.73
2019-03-16T07:02:37.904Z,8.74
2019-03-16T07:05:09.327Z,8.76
2019-03-16T07:07:37.802Z,8.76
2019-03-16T07:10:09.202Z,8.77
2019-03-16T07:12:37.588Z,8.77
2019-03-16T07:15:08.709Z,8.76
2019-03-16T07:17:37.085Z,8.76
2019-03-16T07:20:07.908Z,8.77
2019-03-16T07:22:36.285Z,8.76
2019-03-16T07:25:05.017Z,8.77
2019-03-16T07:27:33.391Z,8.77
2019-03-16T07:30:01.778Z,8.77
2019-03-16T07:32:30.161Z,8.79
2019-03-16T07:34:58.537Z,8.80
2019-03-16T07:37:26.929Z,8.81
2019-03-16T07:39:55.310Z,8.83
2019-03-16T07:42:23.684Z,8.83
2019-03-16T07:44:52.070Z,8.82
2019-03-16T07:47:20.448Z,8.82
2019-03-16T07:49:48.827Z,8.82
2019-03-16T07:52:17.210Z,8.85
2019-03-16T07:54:45.614Z,8.86
2019-03-16T07:57:14.004Z,8.86
2019-03-16T07:59:42.391Z,8.85
2019-03-16T08:02:10.765Z,8.83
2019-03-16T08:04:43.310Z,8.82
2019-03-16T08:07:10.218Z,8.82
2019-03-16T08:09:38.590Z,8.81
2019-03-16T08:12:06.969Z,8.82
2019-03-16T08:14:35.365Z,8.82
2019-03-16T08:17:03.753Z,8.81
2019-03-16T08:19:32.133Z,8.81
2019-03-16T08:22:00.581Z,8.81
2019-03-16T08:24:28.955Z,8.81
2019-03-16T08:26:57.337Z,8.81
2019-03-16T08:29:25.717Z,8.82
2019-03-16T08:31:54.099Z,8.82
2019-03-16T08:34:22.475Z,8.82
2019-03-16T08:36:50.857Z,8.83
2019-03-16T08:39:19.247Z,8.81
2019-03-16T08:41:47.632Z,8.81
2019-03-16T08:44:16.048Z,8.83
2019-03-16T08:46:45.351Z,8.86
2019-03-16T08:49:13.742Z,8.89
2019-03-16T08:51:42.139Z,8.91
2019-03-16T08:54:10.512Z,8.91
2019-03-16T08:56:38.896Z,8.94
2019-03-16T08:59:07.274Z,8.96
2019-03-16T09:01:35.687Z,8.95
2019-03-16T09:04:04.039Z,8.95
2019-03-16T09:06:32.414Z,8.95
2019-03-16T09:09:00.799Z,8.94
2019-03-16T09:11:29.181Z,8.95
2019-03-16T09:13:57.563Z,8.95
2019-03-16T09:16:25.938Z,8.95
2019-03-16T09:18:54.339Z,8.95
2019-03-16T09:21:22.713Z,8.94
2019-03-16T09:23:51.093Z,8.94
2019-03-16T09:26:19.484Z,8.93
2019-03-16T09:28:59.333Z,8.95
2019-03-16T09:31:17.982Z,8.95
2019-03-16T09:33:46.409Z,8.92
2019-03-16T09:36:14.775Z,8.91
2019-03-16T09:38:43.163Z,8.91
2019-03-16T09:41:11.541Z,8.89
2019-03-16T09:43:39.986Z,8.88
2019-03-16T09:46:08.418Z,8.86
2019-03-16T09:48:36.792Z,8.91
2019-03-16T09:51:05.193Z,8.91
2019-03-16T09:53:33.602Z,8.95
2019-03-16T09:56:01.978Z,8.99
2019-03-16T09:58:31.654Z,9.04
2019-03-16T10:01:00.085Z,9.07
2019-03-16T10:03:28.474Z,9.06
2019-03-16T10:05:56.856Z,9.10
2019-03-16T10:08:25.283Z,9.12
2019-03-16T10:10:53.697Z,9.17
2019-03-16T10:13:22.077Z,9.21
2019-03-16T10:15:50.454Z,9.24
2019-03-16T10:18:18.919Z,9.25
2019-03-16T10:20:47.312Z,9.28
2019-03-16T10:23:15.694Z,9.35
2019-03-16T10:25:44.112Z,9.42
2019-03-16T10:28:12.665Z,9.54
2019-03-16T10:30:41.036Z,9.65
2019-03-16T10:33:11.083Z,9.71
2019-03-16T10:35:39.778Z,9.73
2019-03-16T10:38:08.211Z,9.72
2019-03-16T10:40:36.580Z,9.73
2019-03-16T10:43:04.988Z,9.77
2019-03-16T10:45:33.458Z,9.77
2019-03-16T10:48:01.850Z,9.74
2019-03-16T10:50:30.241Z,9.73
2019-03-16T10:52:58.662Z,9.69
2019-03-16T10:55:27.100Z,9.67
2019-03-16T10:57:55.475Z,9.65
2019-03-16T11:00:23.860Z,9.66
2019-03-16T11:02:52.282Z,9.67
2019-03-16T11:05:20.688Z,9.67
2019-03-16T11:07:49.076Z,9.67
2019-03-16T11:10:17.455Z,9.66
2019-03-16T11:12:45.905Z,9.61
2019-03-16T11:15:14.815Z,9.57
2019-03-16T11:17:43.222Z,9.53
2019-03-16T11:20:15.606Z,9.47
2019-03-16T11:22:44.040Z,9.42
2019-03-16T11:25:12.431Z,9.38
2019-03-16T11:27:40.807Z,9.34
2019-03-16T11:30:13.686Z,9.29
2019-03-16T11:32:42.078Z,9.29
2019-03-16T11:35:11.505Z,9.27
2019-03-16T11:37:39.885Z,9.25
2019-03-16T11:40:11.331Z,9.27
2019-03-16T11:42:39.761Z,9.30
2019-03-16T11:45:10.381Z,9.32
2019-03-16T11:47:38.870Z,9.35
2019-03-16T11:50:09.737Z,9.42
2019-03-16T11:52:38.139Z,9.57
2019-03-16T11:55:08.539Z,9.73
2019-03-16T11:57:36.926Z,9.88
2019-03-16T12:00:12.747Z,9.94
2019-03-16T12:02:41.160Z,10.02
2019-03-16T12:05:11.474Z,10.04
2019-03-16T12:07:39.854Z,9.96
2019-03-16T12:10:10.474Z,9.90
2019-03-16T12:12:38.881Z,9.80
2019-03-16T12:15:09.559Z,9.73
2019-03-16T12:17:37.959Z,9.69
2019-03-16T12:20:09.422Z,9.64
2019-03-16T12:22:37.827Z,9.61
2019-03-16T12:25:06.381Z,9.59
2019-03-16T12:27:34.820Z,9.59
2019-03-16T12:30:03.574Z,9.58
2019-03-16T12:32:31.949Z,9.60
2019-03-16T12:35:00.424Z,9.65
2019-03-16T12:37:28.781Z,9.67
2019-03-16T12:39:57.182Z,9.74
2019-03-16T12:42:25.563Z,9.86
2019-03-16T12:44:53.962Z,9.98
2019-03-16T12:47:22.365Z,10.12
2019-03-16T12:49:50.752Z,10.13
2019-03-16T12:52:19.134Z,10.36
2019-03-16T12:54:47.521Z,10.46
2019-03-16T12:57:15.901Z,10.50
2019-03-16T12:59:47.096Z,10.50
2019-03-16T13:02:14.406Z,10.56
2019-03-16T13:04:42.789Z,10.58
2019-03-16T13:07:11.173Z,10.66
2019-03-16T13:09:42.210Z,10.77
2019-03-16T13:12:09.699Z,10.89
2019-03-16T13:14:38.085Z,11.06
2019-03-16T13:17:06.467Z,11.16
2019-03-16T13:19:34.873Z,11.12
2019-03-16T13:22:03.228Z,11.17
2019-03-16T13:24:31.611Z,11.19
2019-03-16T13:26:59.995Z,11.22
2019-03-16T13:29:28.453Z,11.24
2019-03-16T13:31:56.844Z,11.27
2019-03-16T13:34:25.230Z,11.28
2019-03-16T13:36:53.677Z,11.26
2019-03-16T13:39:22.764Z,11.26
2019-03-16T13:41:51.227Z,11.29
2019-03-16T13:44:19.616Z,11.36
2019-03-16T13:46:47.996Z,11.37
2019-03-16T13:49:16.375Z,11.34
2019-03-16T13:51:44.857Z,11.31
2019-03-16T13:54:13.250Z,11.25
2019-03-16T13:56:41.640Z,11.22
2019-03-16T13:59:10.030Z,11.21
2019-03-16T14:01:38.701Z,11.22
2019-03-16T14:04:07.089Z,11.19
2019-03-16T14:06:35.480Z,11.20
2019-03-16T14:09:06.332Z,11.25
2019-03-16T14:11:34.744Z,11.38
2019-03-16T14:14:03.178Z,11.46
2019-03-16T14:16:31.563Z,11.52
2019-03-16T14:19:00.127Z,11.61
2019-03-16T14:21:28.507Z,11.65
2019-03-16T14:23:56.899Z,11.70
2019-03-16T14:26:25.282Z,11.77
2019-03-16T14:28:53.675Z,11.87
2019-03-16T14:31:22.069Z,11.98
2019-03-16T14:33:50.724Z,12.06
2019-03-16T14:36:19.214Z,12.10
2019-03-16T14:38:47.674Z,12.20
2019-03-16T14:41:16.050Z,12.29
2019-03-16T14:43:44.445Z,12.27
2019-03-16T14:46:12.830Z,12.22
2019-03-16T14:48:41.228Z,12.06
2019-03-16T14:51:09.659Z,12.04
2019-03-16T14:53:38.061Z,12.04
2019-03-16T14:56:06.536Z,12.12
2019-03-16T14:58:34.929Z,12.18
2019-03-16T15:01:03.313Z,12.18
2019-03-16T15:03:31.706Z,12.13
2019-03-16T15:06:00.085Z,12.16
2019-03-16T15:08:28.468Z,12.18
2019-03-16T15:10:56.882Z,12.19
2019-03-16T15:13:26.899Z,12.19
2019-03-16T15:15:55.520Z,12.22
2019-03-16T15:18:23.906Z,12.22
2019-03-16T15:20:52.291Z,12.20
2019-03-16T15:23:20.680Z,12.15
2019-03-16T15:25:49.156Z,12.12
2019-03-16T15:28:17.527Z,12.09
2019-03-16T15:30:50.700Z,12.07
2019-03-16T15:33:16.032Z,12.06
2019-03-16T15:35:44.414Z,12.07
2019-03-16T15:38:12.798Z,12.07
2019-03-16T15:40:41.185Z,12.10
2019-03-16T15:43:11.245Z,12.09
2019-03-16T15:45:39.534Z,12.04
2019-03-16T15:48:07.945Z,12.02
2019-03-16T15:50:36.346Z,12.00
2019-03-16T15:53:04.790Z,11.98
2019-03-16T15:55:33.174Z,11.97
2019-03-16T15:58:07.808Z,11.95
2019-03-16T16:00:31.676Z,11.94
2019-03-16T16:03:00.065Z,11.92
2019-03-16T16:05:29.442Z,11.89
2019-03-16T16:07:57.824Z,11.87
2019-03-16T16:10:26.212Z,11.84
2019-03-16T16:12:54.622Z,11.82
2019-03-16T16:15:23.015Z,11.76
2019-03-16T16:17:51.397Z,11.76
2019-03-16T16:20:19.962Z,11.75
2019-03-16T16:22:48.376Z,11.73
2019-03-16T16:25:16.806Z,11.70
2019-03-16T16:27:45.201Z,11.66
2019-03-16T16:30:17.602Z,11.62
2019-03-16T16:32:46.004Z,11.58
2019-03-16T16:35:16.111Z,11.53
2019-03-16T16:37:44.496Z,11.49
2019-03-16T16:40:15.183Z,11.45
2019-03-16T16:42:43.570Z,11.40
2019-03-16T16:45:14.236Z,11.37
2019-03-16T16:47:42.895Z,11.33
2019-03-16T16:50:21.618Z,11.31
2019-03-16T16:52:50.077Z,11.26
2019-03-16T16:55:18.459Z,11.25
2019-03-16T16:57:46.835Z,11.23
2019-03-16T17:00:16.966Z,11.21
2019-03-16T17:02:45.349Z,11.18
2019-03-16T17:05:13.809Z,11.14
2019-03-16T17:07:42.193Z,11.09
2019-03-16T17:10:12.823Z,11.01
2019-03-16T17:12:41.197Z,10.97
2019-03-16T17:15:12.094Z,10.88
2019-03-16T17:17:40.473Z,10.81
2019-03-16T17:20:11.210Z,10.75
2019-03-16T17:22:39.587Z,10.69
2019-03-16T17:25:10.010Z,10.64
2019-03-16T17:27:38.395Z,10.59
2019-03-16T17:30:18.512Z,10.57
2019-03-16T17:32:47.904Z,10.54
2019-03-16T17:35:16.308Z,10.53
2019-03-16T17:37:44.684Z,10.47
2019-03-16T17:40:14.311Z,10.41
2019-03-16T17:42:42.757Z,10.32
2019-03-16T17:45:12.479Z,10.24
2019-03-16T17:47:40.874Z,10.14
2019-03-16T17:50:11.215Z,10.07
2019-03-16T17:52:39.655Z,9.98
2019-03-16T17:55:12.466Z,9.92
2019-03-16T17:57:40.844Z,9.84
2019-03-16T18:00:17.310Z,9.79
2019-03-16T18:02:51.770Z,9.76
2019-03-16T18:05:15.884Z,9.70
2019-03-16T18:07:44.378Z,9.65
2019-03-16T18:10:13.712Z,9.59
2019-03-16T18:12:42.167Z,9.55
2019-03-16T18:15:15.060Z,9.52
2019-03-16T18:17:43.448Z,9.45
2019-03-16T18:20:17.687Z,9.39
2019-03-16T18:22:46.851Z,9.37
2019-03-16T18:25:15.488Z,9.34
2019-03-16T18:27:43.869Z,9.27
2019-03-16T18:30:15.299Z,9.20
2019-03-16T18:32:43.679Z,9.11
2019-03-16T18:35:12.149Z,9.07
2019-03-16T18:37:40.559Z,9.05
2019-03-16T18:40:11.250Z,9.04
2019-03-16T18:42:39.633Z,8.99
2019-03-16T18:45:17.192Z,8.93
2019-03-16T18:47:45.570Z,8.86
2019-03-16T18:50:13.974Z,8.78
2019-03-16T18:52:42.357Z,8.67
2019-03-16T18:55:14.587Z,8.59
2019-03-16T18:57:42.966Z,8.58
2019-03-16T19:00:18.940Z,8.55
2019-03-16T19:02:47.316Z,8.52
2019-03-16T19:05:15.706Z,8.51
2019-03-16T19:07:44.104Z,8.51
2019-03-16T19:10:16.216Z,8.52
2019-03-16T19:12:44.748Z,8.52
2019-03-16T19:15:15.241Z,8.48
2019-03-16T19:17:43.639Z,8.44
2019-03-16T19:20:13.267Z,8.39
2019-03-16T19:22:41.733Z,8.34
2019-03-16T19:25:17.431Z,8.29
2019-03-16T19:27:45.868Z,8.27
2019-03-16T19:30:16.057Z,8.23
2019-03-16T19:32:44.623Z,8.21
2019-03-16T19:35:13.441Z,8.16
2019-03-16T19:37:41.831Z,8.12
2019-03-16T19:40:13.276Z,8.09
2019-03-16T19:42:41.664Z,8.05
2019-03-16T19:45:11.506Z,8.01
2019-03-16T19:47:39.965Z,7.98
2019-03-16T19:50:13.613Z,7.94
2019-03-16T19:52:41.980Z,7.91
2019-03-16T19:55:11.804Z,7.85
2019-03-16T19:57:40.196Z,7.83
2019-03-16T20:00:16.483Z,7.77
2019-03-16T20:02:50.041Z,7.74
2019-03-16T20:05:15.175Z,7.70
2019-03-16T20:07:43.553Z,7.71
2019-03-16T20:10:16.906Z,7.66
2019-03-16T20:12:45.290Z,7.61
2019-03-16T20:15:14.921Z,7.54
2019-03-16T20:17:43.313Z,7.50
2019-03-16T20:20:13.637Z,7.42
2019-03-16T20:22:42.167Z,7.36
2019-03-16T20:25:11.536Z,7.31
2019-03-16T20:27:39.993Z,7.28
2019-03-16T20:30:10.985Z,7.24
2019-03-16T20:32:39.370Z,7.20
2019-03-16T20:35:09.224Z,7.17
2019-03-16T20:37:37.617Z,7.16
2019-03-16T20:40:09.137Z,7.12
2019-03-16T20:42:37.528Z,7.07
2019-03-16T20:45:07.513Z,7.04
2019-03-16T20:47:35.915Z,7.02
2019-03-16T20:50:12.875Z,6.99
2019-03-16T20:52:41.264Z,6.96
2019-03-16T20:55:10.394Z,6.93
2019-03-16T20:57:38.922Z,6.73
2019-03-16T21:00:12.313Z,6.85
2019-03-16T21:02:40.706Z,6.79
2019-03-16T21:05:11.364Z,6.76
2019-03-16T21:07:39.750Z,6.73
2019-03-16T21:10:09.778Z,6.69
2019-03-16T21:12:38.173Z,6.66
2019-03-16T21:15:14.616Z,6.62
2019-03-16T21:17:43.819Z,6.61
2019-03-16T21:20:14.067Z,6.56
2019-03-16T21:22:42.556Z,6.52
2019-03-16T21:25:12.607Z,6.47
2019-03-16T21:27:41.081Z,6.43
2019-03-16T21:30:12.317Z,6.38
2019-03-16T21:32:40.806Z,6.34
2019-03-16T21:35:09.250Z,6.28
2019-03-16T21:37:37.656Z,6.24
2019-03-16T21:40:08.895Z,6.21
2019-03-16T21:42:37.295Z,6.17
2019-03-16T21:45:08.601Z,6.14
2019-03-16T21:47:37.033Z,6.09
2019-03-16T21:50:08.058Z,6.07
2019-03-16T21:52:36.453Z,6.03
2019-03-16T21:55:07.076Z,5.95
2019-03-16T21:57:35.539Z,5.75
2019-03-16T22:00:06.874Z,5.86
2019-03-16T22:02:35.271Z,5.84
2019-03-16T22:05:04.608Z,5.82
2019-03-16T22:07:32.995Z,5.79
2019-03-16T22:10:01.381Z,5.75
2019-03-16T22:12:29.786Z,5.73
2019-03-16T22:14:58.168Z,5.69
2019-03-16T22:17:26.556Z,5.63
2019-03-16T22:19:54.953Z,5.59
2019-03-16T22:22:23.359Z,5.56
2019-03-16T22:24:51.756Z,5.54
2019-03-16T22:27:20.159Z,5.52
2019-03-16T22:29:48.563Z,5.51
2019-03-16T22:32:17.067Z,5.48
2019-03-16T22:34:45.469Z,5.42
2019-03-16T22:37:13.847Z,5.39
2019-03-16T22:39:42.233Z,5.39
2019-03-16T22:42:10.626Z,5.37
2019-03-16T22:44:39.009Z,5.33
2019-03-16T22:47:07.479Z,5.30
2019-03-16T22:49:35.865Z,5.26
2019-03-16T22:52:04.248Z,5.25
2019-03-16T22:54:32.641Z,5.23
2019-03-16T22:57:01.034Z,5.19
2019-03-16T22:59:29.431Z,5.16
2019-03-16T23:01:57.811Z,5.14
2019-03-16T23:04:26.221Z,5.12
2019-03-16T23:06:54.668Z,5.11
2019-03-16T23:09:23.074Z,5.09
2019-03-16T23:11:51.518Z,5.08
2019-03-16T23:14:19.984Z,5.08
2019-03-16T23:16:48.433Z,5.06
2019-03-16T23:19:16.825Z,5.08
2019-03-16T23:21:45.219Z,5.10
2019-03-16T23:24:13.672Z,5.09
2019-03-16T23:26:42.074Z,5.08
2019-03-16T23:29:10.602Z,5.08
2019-03-16T23:31:38.991Z,5.07
2019-03-16T23:34:18.578Z,5.07
2019-03-16T23:36:37.484Z,5.06
2019-03-16T23:39:05.960Z,5.05
2019-03-16T23:41:34.349Z,5.04
2019-03-16T23:44:02.730Z,5.03
2019-03-16T23:46:31.130Z,5.00
2019-03-16T23:48:59.518Z,4.97
2019-03-16T23:51:27.904Z,4.94
2019-03-16T23:53:56.296Z,4.88
2019-03-16T23:56:24.690Z,4.85
2019-03-16T23:58:53.129Z,4.82
